Aviation Digital Data Service (ADDS)

Output produced by METARs form (1705 UTC 24 July 2014)
found at http://www.aviationweather.gov/adds/metars/
 
KIPT 241654Z 35007KT 310V020 10SM BKN055 24/09 A2995 RMK AO2 SLP139 T02390094
KIPT 241554Z 32011KT 10SM BKN050 23/11 A2997 RMK AO2 SLP144 T02280106
KIPT 241454Z VRB04KT 10SM BKN050 23/12 A2996 RMK AO2 SLP141 T02280122 53001
KIPT 241354Z VRB06KT 10SM BKN045 21/13 A2996 RMK AO2 SLP141 T02110128
KIPT 241254Z 31005KT 10SM SCT040 21/13 A2995 RMK AO2 SLP139 T02060128
KIPT 241154Z VRB04KT 10SM CLR 19/13 A2995 RMK AO2 SLP140 T01940133 10200 20178 51011
KIPT 241054Z 26005KT 10SM CLR 18/13 A2994 RMK AO2 SLP137 T01830133
KIPT 240954Z AUTO 26003KT 10SM CLR 18/13 A2993 RMK AO2 SLP133 T01830133
KIPT 240854Z AUTO 26006KT 10SM FEW027 OVC060 19/14 A2992 RMK AO2 SLP127 T01890139 55002
KIPT 240754Z AUTO 28005KT 10SM BKN060 19/14 A2991 RMK AO2 SLP123 T01940139
KIPT 240654Z AUTO 29005KT 10SM OVC060 20/14 A2991 RMK AO2 SLP124 T02000139
KIPT 240554Z AUTO 32005KT 10SM OVC055 20/14 A2992 RMK AO2 SLP129 T02000144 10250 20200 51010
KIPT 240454Z AUTO 31004KT 10SM OVC050 21/14 A2992 RMK AO2 SLP128 T02060144 403280206
KIPT 240354Z AUTO 31007KT 10SM FEW038 BKN050 22/15 A2991 RMK AO2 SLP123 T02170150
KIPT 240254Z AUTO 32004KT 10SM SCT050 BKN085 22/17 A2989 RMK AO2 SLP119 T02220172 50015
KIPT 240154Z 34004KT 10SM BKN045 OVC065 23/18 A2991 RMK AO2 SLP122 T02330178
KIPT 240122Z 35005KT 10SM FEW023 BKN034 OVC042 24/18 A2991 RMK AO2 T02390183
KIPT 240054Z 33006KT 10SM BKN026 OVC034 24/19 A2989 RMK AO2 SLP117 T02440194
KIPT 240046Z 33005KT 10SM BKN026 OVC049 24/19 A2988 RMK AO2 T02440194
KIPT 232354Z VRB05KT 10SM SCT026 BKN031 OVC048 25/20 A2985 RMK AO2 RAB22E42 SLP104 P0000 60000 T02500200 10328 20250 53017
KIPT 232254Z 31010KT 10SM FEW080 27/19 A2982 RMK AO2 LTG DSNT SE RAB20E29 SLP093 P0000 T02720194
KIPT 232154Z 32006KT 10SM FEW060 SCT090 29/19 A2981 RMK AO2 LTG DSNT E SLP088 T02890194
KIPT 232054Z 31005G17KT 10SM SCT055 31/19 A2980 RMK AO2 WSHFT 2027 LTG DSNT E-S SLP085 T03060194 58013
KIPT 232047Z 32013KT 10SM SCT055 31/19 A2979 RMK AO2 WSHFT 2027 LTG DSNT ALQDS T03110194
KIPT 231954Z 24011KT 10SM FEW085 32/20 A2981 RMK AO2 LTG DSNT N AND SE AND NW SLP090 T03220200
KIPT 231854Z 22008KT 10SM SCT075 32/19 A2983 RMK AO2 LTG DSNT E AND SE AND NW SLP095 T03170194
KIPT 231754Z 28010KT 10SM SCT035 32/21 A2984 RMK AO2 LTG DSNT E AND SE SLP097 T03220206 10328 20228 58021
KIPT 231737Z 25006KT 10SM SCT035 32/21 A2985 RMK AO2 LTG DSNT E T03170211
KIPT 231723Z 26008KT 10SM VCTS CLR 31/22 A2985 RMK AO2 LTG DSNT SE T03110217
KIPT 231654Z 00000KT 10SM FEW037 29/22 A2986 RMK AO2 SLP107 T02940217
KIPT 231554Z VRB05KT 10SM SCT032 29/22 A2988 RMK AO2 SLP112 T02940217
KIPT 231454Z VRB03KT 10SM FEW036 28/22 A2990 RMK AO2 SLP119 T02830222 58023
KIPT 231354Z VRB04KT 10SM FEW012 26/22 A2992 RMK AO2 SLP127 T02610217
KIPT 231254Z 12004KT 8SM SCT007 SCT042 BKN065 24/21 A2995 RMK AO2 SLP138 T02390206
KIPT 231154Z 00000KT 7SM SCT007 23/20 A2997 RMK AO2 SLP143 T02280200 10228 20206 50006
KIPT 231054Z 00000KT 6SM BR SCT006 22/19 A2997 RMK AO2 SLP146 T02170194
KIPT 231033Z 31003KT 6SM BR SCT006 21/19 A2997 RMK AO2 T02060189
KIPT 230954Z AUTO 00000KT 8SM CLR 21/19 A2996 RMK AO2 SLP140 T02110194
KIPT 230854Z AUTO 00000KT 8SM CLR 21/18 A2995 RMK AO2 SLP137 T02060183 58018
KIPT 230754Z AUTO 00000KT 10SM CLR 21/19 A2997 RMK AO2 SLP144 T02110194
KIPT 230654Z AUTO 36003KT 10SM CLR 22/19 A2999 RMK AO2 SLP152 T02170194
KIPT 230554Z AUTO 02003KT 10SM CLR 23/20 A3000 RMK AO2 SLP155 T02280200 10283 20222 56006